Time;durP1;ratioP1;P1;durP2;ratioP2;P2;SDS_P1;SDS_P2;PMS_P1;PMS_P2;Temp;Humidity;BMP_temperature;BMP_pressure;BME280_temperature;BME280_humidity;BME280_pressure;Samples;Min_cycle;Max_cycle;Signal;HPM_P1;HPM_P2
2023/06/06 00:02:21;;;;;;;10.07;5.07;;;;;;;-142.57;100.00;115900.28;4858855;29;20425;-80
2023/06/06 00:04:49;;;;;;;12.48;4.80;;;;;;;-142.57;100.00;115900.28;4858949;29;20125;-81
2023/06/06 00:07:18;;;;;;;11.65;4.90;;;;;;;-142.57;100.00;115900.28;4859707;29;20038;-80
2023/06/06 00:09:44;;;;;;;9.30;5.35;;;;;;;-142.57;100.00;115900.28;4861932;29;20041;-80
2023/06/06 00:12:12;;;;;;;13.15;5.78;;;;;;;-142.57;100.00;115900.28;4862269;29;20037;-80
2023/06/06 00:14:41;;;;;;;11.13;6.15;;;;;;;-142.57;100.00;115900.28;4860166;29;20033;-80
2023/06/06 00:17:08;;;;;;;11.80;6.25;;;;;;;-142.57;100.00;115900.28;4859876;29;20061;-81
2023/06/06 00:19:35;;;;;;;14.90;6.80;;;;;;;-142.57;100.00;115900.28;4859495;29;20046;-81
2023/06/06 00:22:02;;;;;;;13.88;7.03;;;;;;;-142.57;100.00;115900.28;4859731;29;20092;-80
2023/06/06 00:24:28;;;;;;;10.98;6.63;;;;;;;-142.57;100.00;115900.28;4858876;29;20057;-79
2023/06/06 00:26:54;;;;;;;18.63;6.10;;;;;;;-142.57;100.00;115900.28;4859647;29;20033;-81
2023/06/06 00:29:19;;;;;;;15.88;5.82;;;;;;;-142.57;100.00;115900.28;4842890;29;20037;-81
2023/06/06 00:31:45;;;;;;;9.10;5.88;;;;;;;-142.57;100.00;115900.28;4859266;29;20041;-81
2023/06/06 00:34:11;;;;;;;11.95;6.07;;;;;;;-142.57;100.00;115900.28;4842679;29;20037;-81
2023/06/06 00:36:36;;;;;;;18.77;6.55;;;;;;;-142.57;100.00;115900.28;4858686;29;20424;-79
2023/06/06 00:39:02;;;;;;;10.30;5.78;;;;;;;-142.57;100.00;115900.28;4859499;29;20029;-80
2023/06/06 00:41:27;;;;;;;9.45;6.15;;;;;;;-142.57;100.00;115900.28;4859499;29;20439;-82
2023/06/06 00:43:53;;;;;;;11.98;5.53;;;;;;;-142.57;100.00;115900.28;4842413;29;20045;-81
2023/06/06 00:46:19;;;;;;;14.63;6.85;;;;;;;-142.57;100.00;115900.28;4857331;29;20148;-83
2023/06/06 00:48:45;;;;;;;13.73;6.03;;;;;;;-142.57;100.00;115900.28;4862672;29;20025;-81
2023/06/06 00:51:11;;;;;;;9.80;5.68;;;;;;;-142.57;100.00;115900.28;4862556;29;20492;-81
2023/06/06 00:53:37;;;;;;;15.35;6.20;;;;;;;-142.57;100.00;115900.28;4862157;29;20094;-82
2023/06/06 00:56:05;;;;;;;12.82;6.10;;;;;;;-142.57;100.00;115900.28;4862403;29;20041;-80
2023/06/06 00:58:31;;;;;;;22.77;5.82;;;;;;;-142.57;100.00;115900.28;4862405;29;20033;-81
2023/06/06 01:00:57;;;;;;;18.05;7.30;;;;;;;-142.57;100.00;115900.28;4861937;29;20429;-82
2023/06/06 01:03:24;;;;;;;13.35;5.70;;;;;;;-142.57;100.00;115900.28;4862021;29;20121;-80
2023/06/06 01:05:55;;;;;;;9.82;6.47;;;;;;;-142.57;100.00;115900.28;4862264;29;20068;-81
2023/06/06 01:08:22;;;;;;;13.82;6.03;;;;;;;-142.57;100.00;115900.28;4843501;29;20097;-81
2023/06/06 01:10:50;;;;;;;17.98;6.85;;;;;;;-142.57;100.00;115900.28;4862035;29;20045;-80
2023/06/06 01:13:55;;;;;;;10.10;5.85;;;;;;;-142.57;100.00;115900.28;4861885;29;20048;-82
2023/06/06 01:16:22;;;;;;;10.10;6.38;;;;;;;-142.57;100.00;115900.28;4862257;29;20085;-80
2023/06/06 01:18:49;;;;;;;11.98;6.22;;;;;;;-142.57;100.00;115900.28;4862239;29;20117;-81
2023/06/06 01:21:15;;;;;;;16.92;7.05;;;;;;;-142.57;100.00;115900.28;4845327;29;20041;-80
2023/06/06 01:23:43;;;;;;;12.65;6.70;;;;;;;-142.57;100.00;115900.28;4862095;29;20487;-79
2023/06/06 01:26:10;;;;;;;9.05;6.75;;;;;;;-142.57;100.00;115900.28;4861982;29;20046;-82
2023/06/06 01:28:36;;;;;;;17.60;6.82;;;;;;;-142.57;100.00;115900.28;4844822;29;20041;-81
2023/06/06 01:31:06;;;;;;;20.67;6.93;;;;;;;-142.57;100.00;115900.28;4845039;29;20033;-80
2023/06/06 01:33:37;;;;;;;16.40;7.03;;;;;;;-142.57;100.00;115900.28;4844995;29;20034;-80
2023/06/06 01:36:27;;;;;;;16.30;6.60;;;;;;;-142.57;100.00;115900.28;4860067;29;20041;-81
2023/06/06 01:38:57;;;;;;;14.80;6.28;;;;;;;-142.57;100.00;115900.28;4861106;29;20034;-79
2023/06/06 01:41:23;;;;;;;18.05;6.80;;;;;;;-142.57;100.00;115900.28;4842928;29;20037;-80
2023/06/06 01:43:54;;;;;;;15.50;6.40;;;;;;;-142.57;100.00;115900.28;4845033;29;20487;-82
2023/06/06 01:46:24;;;;;;;18.40;7.05;;;;;;;-142.57;100.00;115900.28;4842296;29;20136;-80
2023/06/06 01:48:50;;;;;;;13.32;7.00;;;;;;;-142.57;100.00;115900.28;4859199;29;20067;-80
2023/06/06 01:51:16;;;;;;;13.07;6.45;;;;;;;-142.57;100.00;115900.28;4844862;29;20045;-81
2023/06/06 01:53:41;;;;;;;16.58;6.18;;;;;;;-142.57;100.00;115900.28;4861269;29;20038;-81
2023/06/06 01:56:12;;;;;;;18.15;6.45;;;;;;;-142.57;100.00;115900.28;4861519;29;20360;-81
2023/06/06 01:58:39;;;;;;;18.17;6.95;;;;;;;-142.57;100.00;115900.28;4844420;29;20038;-80
2023/06/06 02:01:06;;;;;;;15.77;6.63;;;;;;;-142.57;100.00;115900.28;4844227;29;20549;-82
2023/06/06 02:03:32;;;;;;;20.05;6.78;;;;;;;-142.57;100.00;115900.28;4861054;29;20049;-83
2023/06/06 02:05:58;;;;;;;10.88;5.93;;;;;;;-142.57;100.00;115900.28;4861075;29;20041;-81
2023/06/06 02:08:23;;;;;;;23.30;7.18;;;;;;;-142.57;100.00;115900.28;4844213;29;20021;-80
2023/06/06 02:10:49;;;;;;;15.95;6.25;;;;;;;-142.57;100.00;115900.28;4861015;29;20381;-80
2023/06/06 02:13:15;;;;;;;16.77;5.90;;;;;;;-142.57;100.00;115900.28;4861349;29;20044;-80
2023/06/06 02:15:41;;;;;;;21.50;6.05;;;;;;;-142.57;100.00;115900.28;4861051;29;20022;-80
2023/06/06 02:18:06;;;;;;;16.75;6.28;;;;;;;-142.57;100.00;115900.28;4860901;29;20037;-78
2023/06/06 02:20:32;;;;;;;15.52;5.85;;;;;;;-142.57;100.00;115900.28;4861329;29;20078;-80
2023/06/06 02:22:57;;;;;;;13.30;6.25;;;;;;;-142.57;100.00;115900.28;4861352;29;20538;-81
2023/06/06 02:25:24;;;;;;;14.68;5.55;;;;;;;-142.57;100.00;115900.28;4861324;29;20094;-82
2023/06/06 02:27:50;;;;;;;14.30;6.05;;;;;;;-142.57;100.00;115900.28;4844669;29;20033;-80
2023/06/06 02:30:16;;;;;;;25.25;5.50;;;;;;;-142.57;100.00;115900.28;4844428;29;20046;-81
2023/06/06 02:32:41;;;;;;;10.38;5.60;;;;;;;-142.57;100.00;115900.28;4860945;29;20030;-81
2023/06/06 02:35:08;;;;;;;14.63;5.45;;;;;;;-142.57;100.00;115900.28;4844225;29;20037;-81
2023/06/06 02:37:33;;;;;;;23.65;6.20;;;;;;;-142.57;100.00;115900.28;4861047;29;20093;-82
2023/06/06 02:40:06;;;;;;;14.00;5.90;;;;;;;-142.57;100.00;115900.28;4860714;29;20076;-81
2023/06/06 02:42:33;;;;;;;12.65;5.72;;;;;;;-142.57;100.00;115900.28;4844150;29;20496;-81
2023/06/06 02:44:58;;;;;;;16.63;5.93;;;;;;;-142.57;100.00;115900.28;4844088;29;20110;-82
2023/06/06 02:47:24;;;;;;;21.80;6.22;;;;;;;-142.57;100.00;115900.28;4844109;29;20203;-80
2023/06/06 02:49:50;;;;;;;22.73;6.45;;;;;;;-142.57;100.00;115900.28;4844189;29;20026;-81
2023/06/06 02:52:15;;;;;;;13.10;5.28;;;;;;;-142.57;100.00;115900.28;4844034;29;20510;-81
2023/06/06 02:54:41;;;;;;;14.95;5.85;;;;;;;-142.57;100.00;115900.28;4844125;29;20498;-81
2023/06/06 02:57:07;;;;;;;14.43;6.25;;;;;;;-142.57;100.00;115900.28;4843891;29;20037;-83
2023/06/06 02:59:32;;;;;;;9.98;5.50;;;;;;;-142.57;100.00;115900.28;4843952;29;20066;-80
2023/06/06 03:01:58;;;;;;;18.98;6.00;;;;;;;-142.57;100.00;115900.28;4860696;29;20046;-82
2023/06/06 03:04:24;;;;;;;10.35;6.40;;;;;;;-142.57;100.00;115900.28;4862335;29;20045;-80
2023/06/06 03:06:50;;;;;;;10.63;5.60;;;;;;;-142.57;100.00;115900.28;4863904;29;20093;-80
2023/06/06 03:09:15;;;;;;;14.93;5.70;;;;;;;-142.57;100.00;115900.28;4845471;29;20045;-80
2023/06/06 03:11:42;;;;;;;16.02;5.78;;;;;;;-142.57;100.00;115900.28;4844002;29;20037;-80
2023/06/06 03:14:08;;;;;;;13.45;5.88;;;;;;;-142.57;100.00;115900.28;4843596;29;20517;-81
2023/06/06 03:16:36;;;;;;;14.38;6.40;;;;;;;-142.57;100.00;115900.28;4843931;29;20029;-83
2023/06/06 03:19:03;;;;;;;14.82;6.20;;;;;;;-142.57;100.00;115900.28;4843644;29;20647;-81
2023/06/06 03:21:30;;;;;;;12.10;5.57;;;;;;;-142.57;100.00;115900.28;4843640;29;20037;-81
2023/06/06 03:23:55;;;;;;;10.93;5.22;;;;;;;-142.57;100.00;115900.28;4843631;29;20092;-81
2023/06/06 03:26:26;;;;;;;18.67;5.75;;;;;;;-142.57;100.00;115900.28;4843537;29;20436;-80
2023/06/06 03:28:53;;;;;;;9.93;5.53;;;;;;;-142.57;100.00;115900.28;4843421;29;20041;-81
2023/06/06 03:31:23;;;;;;;19.42;5.57;;;;;;;-142.57;100.00;115900.28;4843600;29;20033;-82
2023/06/06 03:33:50;;;;;;;13.40;5.07;;;;;;;-142.57;100.00;115900.28;4843583;29;20530;-81
2023/06/06 03:36:16;;;;;;;16.67;5.63;;;;;;;-142.57;100.00;115900.28;4842928;29;20068;-80
2023/06/06 03:38:42;;;;;;;14.43;5.55;;;;;;;-142.57;100.00;115900.28;4843173;29;20065;-80
2023/06/06 03:41:08;;;;;;;16.05;5.82;;;;;;;-142.57;100.00;115900.28;4843377;29;20562;-82
2023/06/06 03:43:35;;;;;;;16.85;5.55;;;;;;;-142.57;100.00;115900.28;4843425;29;20041;-82
2023/06/06 03:46:02;;;;;;;18.17;5.38;;;;;;;-142.57;100.00;115900.28;4843811;29;20077;-80
2023/06/06 03:48:29;;;;;;;14.90;5.25;;;;;;;-142.57;100.00;115900.28;4828472;29;20129;-81
2023/06/06 03:50:55;;;;;;;15.43;5.47;;;;;;;-142.57;100.00;115900.28;4843788;29;20108;-79
2023/06/06 03:53:20;;;;;;;12.82;5.60;;;;;;;-142.57;100.00;115900.28;4843464;29;20502;-81
2023/06/06 03:55:46;;;;;;;24.10;6.43;;;;;;;-142.57;100.00;115900.28;4843191;29;20112;-82
2023/06/06 03:58:15;;;;;;;15.90;5.97;;;;;;;-142.57;100.00;115900.28;4859965;29;20053;-81
2023/06/06 04:00:41;;;;;;;19.60;6.13;;;;;;;-142.57;100.00;115900.28;4843445;29;20045;-81
2023/06/06 04:03:06;;;;;;;12.35;6.72;;;;;;;-142.57;100.00;115900.28;4843175;29;20034;-82
2023/06/06 04:05:32;;;;;;;21.50;6.88;;;;;;;-142.57;100.00;115900.28;4859683;29;20128;-80
2023/06/06 04:07:59;;;;;;;15.43;7.63;;;;;;;-142.57;100.00;115900.28;4843117;29;20539;-79
2023/06/06 04:10:25;;;;;;;19.80;6.18;;;;;;;-142.57;100.00;115900.28;4842668;29;20098;-81
2023/06/06 04:12:51;;;;;;;17.33;6.18;;;;;;;-142.57;100.00;115900.28;4843017;29;20068;-80
2023/06/06 04:15:17;;;;;;;12.13;5.88;;;;;;;-142.57;100.00;115900.28;4843201;29;20491;-81
2023/06/06 04:17:42;;;;;;;12.27;6.03;;;;;;;-142.57;100.00;115900.28;4843427;29;20112;-83
2023/06/06 04:20:08;;;;;;;16.75;5.38;;;;;;;-142.57;100.00;115900.28;4859765;29;20030;-80
2023/06/06 04:22:35;;;;;;;13.65;5.68;;;;;;;-142.57;100.00;115900.28;4845996;29;20057;-81
2023/06/06 04:25:00;;;;;;;21.38;5.53;;;;;;;-142.57;100.00;115900.28;4846617;29;20140;-81
2023/06/06 04:27:26;;;;;;;14.30;5.93;;;;;;;-142.57;100.00;115900.28;4846819;29;20140;-82
2023/06/06 04:29:57;;;;;;;11.32;5.03;;;;;;;-142.57;100.00;115900.28;4846595;29;20085;-81
2023/06/06 04:32:24;;;;;;;20.05;5.80;;;;;;;-142.57;100.00;115900.28;4846389;29;20042;-82
2023/06/06 04:34:57;;;;;;;19.25;5.47;;;;;;;-142.57;100.00;115900.28;4845506;29;20045;-80
2023/06/06 04:37:24;;;;;;;12.40;4.85;;;;;;;-142.57;100.00;115900.28;4846238;29;20498;-78
2023/06/06 04:39:56;;;;;;;12.65;4.90;;;;;;;-142.57;100.00;115900.28;4846675;29;20487;-80
2023/06/06 04:42:23;;;;;;;15.53;4.47;;;;;;;-142.57;100.00;115900.28;4862983;29;20045;-83
2023/06/06 04:44:49;;;;;;;17.85;5.00;;;;;;;-142.57;100.00;115900.28;4863027;29;20401;-80
2023/06/06 04:47:19;;;;;;;13.38;5.05;;;;;;;-142.57;100.00;115900.28;4863024;29;20034;-79
2023/06/06 04:49:46;;;;;;;9.98;4.93;;;;;;;-142.57;100.00;115900.28;4862633;29;20496;-79
2023/06/06 04:52:15;;;;;;;16.58;5.28;;;;;;;-142.57;100.00;115900.28;4845756;29;20440;-81
2023/06/06 04:54:41;;;;;;;10.20;4.40;;;;;;;-142.57;100.00;115900.28;4863050;29;20041;-82
2023/06/06 04:57:08;;;;;;;12.82;4.72;;;;;;;-142.57;100.00;115900.28;4862779;29;20503;-82
2023/06/06 04:59:35;;;;;;;10.13;5.05;;;;;;;-142.57;100.00;115900.28;4862839;29;20025;-79
2023/06/06 05:02:03;;;;;;;9.88;4.57;;;;;;;-142.57;100.00;115900.28;4845509;29;20108;-82
2023/06/06 05:04:31;;;;;;;10.23;4.93;;;;;;;-142.57;100.00;115900.28;4846048;29;20526;-79
2023/06/06 05:06:57;;;;;;;9.00;4.40;;;;;;;-142.57;100.00;115900.28;4861005;29;20073;-80
2023/06/06 05:09:23;;;;;;;5.97;4.50;;;;;;;-142.57;100.00;115900.28;4861792;29;20022;-79
2023/06/06 05:11:51;;;;;;;12.10;4.30;;;;;;;-142.57;100.00;115900.28;4862036;29;20041;-79
2023/06/06 05:14:18;;;;;;;11.30;4.28;;;;;;;-142.57;100.00;115900.28;4861829;29;20038;-79
2023/06/06 05:16:47;;;;;;;11.00;4.10;;;;;;;-142.57;100.00;115900.28;4861631;29;20057;-79
2023/06/06 05:19:15;;;;;;;9.50;3.75;;;;;;;-142.57;100.00;115900.28;4861888;29;20038;-79
2023/06/06 05:21:40;;;;;;;18.23;4.10;;;;;;;-142.57;100.00;115900.28;4861774;29;20041;-80
2023/06/06 05:24:06;;;;;;;5.28;3.70;;;;;;;-142.57;100.00;115900.28;4861699;29;20041;-80
2023/06/06 05:26:34;;;;;;;14.32;5.20;;;;;;;-142.57;100.00;115900.28;4844889;29;20037;-78
2023/06/06 05:29:00;;;;;;;10.10;4.25;;;;;;;-142.57;100.00;115900.28;4858937;29;20033;-80
2023/06/06 05:31:26;;;;;;;7.20;3.28;;;;;;;-142.57;100.00;115900.28;4861625;29;20452;-79
2023/06/06 05:33:53;;;;;;;12.18;5.00;;;;;;;-142.57;100.00;115900.28;4861193;29;20502;-81
2023/06/06 05:36:19;;;;;;;6.72;4.30;;;;;;;-142.57;100.00;115900.28;4861572;29;20097;-80
2023/06/06 05:38:45;;;;;;;12.02;4.13;;;;;;;-142.57;100.00;115900.28;4861434;29;20076;-81
2023/06/06 05:41:10;;;;;;;11.38;4.50;;;;;;;-142.57;100.00;115900.28;4861600;29;20045;-81
2023/06/06 05:43:36;;;;;;;11.00;4.65;;;;;;;-142.57;100.00;115900.28;4861507;29;20045;-82
2023/06/06 05:46:02;;;;;;;11.85;4.72;;;;;;;-142.57;100.00;115900.28;4860870;29;20041;-80
2023/06/06 05:48:28;;;;;;;10.93;5.55;;;;;;;-142.57;100.00;115900.28;4861452;29;20120;-79
2023/06/06 05:50:53;;;;;;;14.10;5.40;;;;;;;-142.57;100.00;115900.28;4861309;29;20038;-82
2023/06/06 05:53:21;;;;;;;15.27;5.25;;;;;;;-142.57;100.00;115900.28;4861341;29;20136;-81
2023/06/06 05:55:46;;;;;;;11.98;4.78;;;;;;;-142.57;100.00;115900.28;4862204;29;20407;-80
2023/06/06 05:58:12;;;;;;;9.95;4.97;;;;;;;-142.57;100.00;115900.28;4862538;29;20038;-81
2023/06/06 06:00:38;;;;;;;10.10;4.80;;;;;;;-142.57;100.00;115900.28;4864898;29;20468;-81
2023/06/06 06:03:04;;;;;;;10.40;4.72;;;;;;;-142.57;100.00;115900.28;4869295;29;20475;-81
2023/06/06 06:05:31;;;;;;;13.07;5.28;;;;;;;-142.57;100.00;115900.28;4867873;29;20038;-79
2023/06/06 06:10:35;;;;;;;14.95;4.38;;;;;;;-142.57;100.00;115900.28;4880264;29;20049;-85
2023/06/06 06:13:02;;;;;;;8.80;3.92;;;;;;;-142.57;100.00;115900.28;4881638;29;20104;-83
2023/06/06 06:15:31;;;;;;;8.23;4.18;;;;;;;-142.57;100.00;115900.28;4875485;29;20063;-81
2023/06/06 06:17:58;;;;;;;15.63;4.65;;;;;;;-142.57;100.00;115900.28;4861854;29;20076;-80
2023/06/06 06:20:23;;;;;;;11.90;3.85;;;;;;;-142.57;100.00;115900.28;4869149;29;20037;-82
2023/06/06 06:22:49;;;;;;;7.57;3.60;;;;;;;-142.57;100.00;115900.28;4875802;29;20093;-81
2023/06/06 06:25:19;;;;;;;6.32;3.58;;;;;;;-142.57;100.00;115900.28;4859832;29;20037;-81
2023/06/06 06:27:46;;;;;;;11.18;4.45;;;;;;;-142.57;100.00;115900.28;4874025;29;20037;-81
2023/06/06 06:30:13;;;;;;;10.43;3.60;;;;;;;-142.57;100.00;115900.28;4872357;29;21452;-81
2023/06/06 06:32:40;;;;;;;10.00;4.40;;;;;;;-142.57;100.00;115900.28;4874305;29;20092;-81
2023/06/06 06:35:07;;;;;;;10.30;3.72;;;;;;;-142.57;100.00;115900.28;4878078;29;20045;-81
2023/06/06 06:37:37;;;;;;;8.00;4.30;;;;;;;-142.57;100.00;115900.28;4885475;29;20054;-82
2023/06/06 06:40:09;;;;;;;5.90;4.00;;;;;;;-142.57;100.00;115900.28;4866856;29;20041;-82
2023/06/06 06:42:39;;;;;;;8.27;3.90;;;;;;;-142.57;100.00;115900.28;4884748;29;20073;-83
2023/06/06 06:45:19;;;;;;;9.23;3.80;;;;;;;-142.57;100.00;115900.28;4867631;29;20128;-81
2023/06/06 06:47:45;;;;;;;7.78;3.40;;;;;;;-142.57;100.00;115900.28;4889461;29;20167;-81
2023/06/06 06:50:11;;;;;;;9.38;4.18;;;;;;;-142.57;100.00;115900.28;4895326;29;20048;-82
2023/06/06 06:52:39;;;;;;;5.88;3.92;;;;;;;-142.57;100.00;115900.28;4894858;29;20028;-81
2023/06/06 06:55:06;;;;;;;9.00;4.00;;;;;;;-142.57;88.24;115900.28;4894273;29;20126;-79
2023/06/06 06:57:32;;;;;;;7.00;3.20;;;;;;;-142.57;80.10;115900.28;4894744;29;20041;-81
2023/06/06 07:00:11;;;;;;;5.75;3.40;;;;;;;-142.57;81.50;115900.28;4877169;29;20510;-80
2023/06/06 07:02:39;;;;;;;7.43;3.42;;;;;;;-142.57;79.40;115900.28;4888723;29;20149;-81
2023/06/06 07:05:06;;;;;;;6.00;3.17;;;;;;;-142.57;76.82;115900.28;4891382;29;20044;-80
2023/06/06 07:07:34;;;;;;;4.93;2.78;;;;;;;-142.57;69.53;115900.28;4875927;29;20033;-81
2023/06/06 07:10:00;;;;;;;4.75;3.10;;;;;;;-142.57;73.26;115900.28;4874693;29;20113;-84
2023/06/06 07:12:25;;;;;;;5.47;3.00;;;;;;;-142.57;69.80;115900.28;4876175;29;20033;-82
2023/06/06 07:14:51;;;;;;;6.90;3.00;;;;;;;-142.57;67.27;115900.28;4857831;29;20689;-82
2023/06/06 07:17:17;;;;;;;4.57;3.63;;;;;;;-142.57;69.64;115900.28;4872350;29;20029;-82
2023/06/06 07:19:43;;;;;;;6.47;3.95;;;;;;;-142.57;68.78;115900.28;4862607;29;20158;-82
2023/06/06 07:22:10;;;;;;;9.85;4.03;;;;;;;-142.57;67.74;115900.28;4862619;29;20053;-84
2023/06/06 07:24:39;;;;;;;5.00;4.10;;;;;;;-142.57;62.18;115900.28;4866428;29;20041;-82
2023/06/06 07:27:06;;;;;;;6.35;4.32;;;;;;;-142.57;65.40;115900.28;4851294;29;20419;-82
2023/06/06 07:29:31;;;;;;;6.90;5.00;;;;;;;-142.57;67.08;115900.28;4865304;29;20033;-84
2023/06/06 07:31:57;;;;;;;9.55;4.05;;;;;;;-142.57;61.80;115900.28;4863397;29;20052;-83
2023/06/06 07:34:22;;;;;;;8.85;5.40;;;;;;;-142.57;67.72;115900.28;4848609;29;20038;-83
2023/06/06 07:36:48;;;;;;;4.82;4.05;;;;;;;-142.57;73.66;115900.28;4862133;29;20052;-82
2023/06/06 07:39:14;;;;;;;6.70;4.40;;;;;;;-142.57;72.25;115900.28;4860731;29;20069;-83
2023/06/06 07:41:39;;;;;;;8.13;4.30;;;;;;;-142.57;71.19;115900.28;4861786;29;20030;-83
2023/06/06 07:44:05;;;;;;;7.43;5.40;;;;;;;-142.57;70.36;115900.28;4862386;29;20109;-81
2023/06/06 07:46:31;;;;;;;12.68;6.05;;;;;;;-142.57;75.42;115900.28;4866326;29;20108;-82
2023/06/06 07:48:58;;;;;;;10.55;6.78;;;;;;;-142.57;79.39;115900.28;4865620;29;20033;-83
2023/06/06 07:51:24;;;;;;;8.93;5.35;;;;;;;-142.57;75.36;115900.28;4869485;29;20047;-84
2023/06/06 07:53:49;;;;;;;7.60;5.28;;;;;;;-142.57;68.14;115900.28;4868219;29;20078;-81
2023/06/06 07:56:16;;;;;;;11.43;6.50;;;;;;;-142.57;66.25;115900.28;4870193;29;20422;-82
2023/06/06 07:58:55;;;;;;;8.55;5.70;;;;;;;-142.57;64.89;115900.28;4904373;29;20088;-81
2023/06/06 08:01:23;;;;;;;9.30;5.60;;;;;;;-142.57;59.18;115900.28;4887545;29;20104;-82
2023/06/06 08:03:54;;;;;;;9.15;5.85;;;;;;;-142.57;60.10;115900.28;4889650;29;20055;-81
2023/06/06 08:06:23;;;;;;;7.18;5.53;;;;;;;-142.57;59.88;115900.28;4881576;29;20505;-82
2023/06/06 08:08:49;;;;;;;8.70;6.10;;;;;;;-142.57;62.91;115900.28;4875635;29;20052;-82
2023/06/06 08:11:17;;;;;;;7.28;5.05;;;;;;;-142.57;66.52;115900.28;4860253;29;20115;-82
2023/06/06 08:13:43;;;;;;;7.95;5.03;;;;;;;-142.57;62.62;115900.28;4873171;29;20045;-83
2023/06/06 08:16:09;;;;;;;6.38;4.38;;;;;;;-142.57;59.43;115900.28;4875154;29;20129;-86
2023/06/06 08:18:35;;;;;;;10.40;5.32;;;;;;;-142.57;63.43;115900.28;4867456;29;20038;-82
2023/06/06 08:21:01;;;;;;;9.07;4.90;;;;;;;-142.57;63.32;115900.28;4872178;29;20069;-82
2023/06/06 08:23:30;;;;;;;7.68;5.07;;;;;;;-142.57;63.82;115900.28;4876681;29;20121;-82
2023/06/06 08:25:55;;;;;;;7.53;5.88;;;;;;;-142.57;59.79;115900.28;4884919;29;20025;-82
2023/06/06 08:28:30;;;;;;;6.82;4.90;;;;;;;-142.57;63.16;115900.28;4861100;29;20033;-83
2023/06/06 08:30:56;;;;;;;7.75;5.70;;;;;;;-142.57;67.88;115900.28;4869391;29;20065;-82
2023/06/06 08:33:21;;;;;;;8.75;5.68;;;;;;;-142.57;65.56;115900.28;4852948;29;20111;-83
2023/06/06 08:35:47;;;;;;;7.20;6.00;;;;;;;-142.57;62.60;115900.28;4872832;29;20467;-84
2023/06/06 08:38:13;;;;;;;8.32;5.75;;;;;;;-142.57;58.63;115900.28;4847013;29;20056;-82
2023/06/06 08:40:42;;;;;;;10.88;5.15;;;;;;;-142.57;57.04;115900.28;4879501;29;20157;-83
2023/06/06 08:43:10;;;;;;;5.70;4.03;;;;;;;-142.57;58.05;115900.28;4883154;29;20041;-82
2023/06/06 08:45:40;;;;;;;6.85;4.93;;;;;;;-142.57;54.50;115900.28;4885919;29;20046;-83
2023/06/06 08:48:08;;;;;;;7.97;4.90;;;;;;;-142.57;52.56;115900.28;4865769;29;20488;-82
2023/06/06 08:50:34;;;;;;;5.57;4.53;;;;;;;-142.57;49.63;115900.28;4879593;29;20228;-84
2023/06/06 08:53:04;;;;;;;4.55;3.47;;;;;;;-142.57;51.69;115900.28;4879314;29;20040;-84
2023/06/06 08:55:37;;;;;;;6.18;5.05;;;;;;;-142.57;52.08;115900.28;4879396;29;20048;-83
2023/06/06 08:58:03;;;;;;;6.25;4.78;;;;;;;-142.57;50.92;115900.28;4869265;29;20045;-84
2023/06/06 09:00:29;;;;;;;6.00;4.70;;;;;;;-142.57;51.57;115900.28;4863713;29;20037;-84
2023/06/06 09:02:55;;;;;;;8.38;4.50;;;;;;;-142.57;52.44;115900.28;4878949;29;20103;-81
2023/06/06 09:05:21;;;;;;;6.97;3.97;;;;;;;-142.57;52.62;115900.28;4879118;29;20053;-83
2023/06/06 09:07:52;;;;;;;7.43;4.18;;;;;;;-142.57;47.96;115900.28;4881406;29;20034;-83
2023/06/06 09:10:19;;;;;;;;;;;;;;;-142.57;49.52;115900.28;4883413;29;20045;-84
2023/06/06 09:12:46;;;;;;;6.03;4.53;;;;;;;-142.57;52.84;115900.28;4865312;29;19920;-82
2023/06/06 09:15:16;;;;;;;7.60;5.40;;;;;;;-142.57;55.02;115900.28;4882229;29;20041;-83
2023/06/06 09:17:45;;;;;;;6.95;5.25;;;;;;;-142.57;54.69;115900.28;4881959;29;20045;-83
2023/06/06 09:20:13;;;;;;;8.23;5.32;;;;;;;-142.57;56.23;115900.28;4882152;29;20040;-82
2023/06/06 09:22:40;;;;;;;7.38;4.78;;;;;;;-142.57;56.49;115900.28;4881913;29;20408;-84
2023/06/06 09:25:17;;;;;;;6.63;4.68;;;;;;;-142.57;55.03;115900.28;4882277;29;20056;-81
2023/06/06 09:27:46;;;;;;;5.45;3.95;;;;;;;-142.57;53.97;115900.28;4865758;29;20048;-82
2023/06/06 09:30:18;;;;;;;7.97;4.55;;;;;;;-142.57;52.47;115900.28;4884547;29;20032;-86
2023/06/06 09:32:46;;;;;;;6.15;3.83;;;;;;;-142.57;53.64;115900.28;4885485;29;20432;-82
2023/06/06 09:35:15;;;;;;;4.63;3.45;;;;;;;-142.57;50.33;115900.28;4884445;29;20523;-82
2023/06/06 09:37:40;;;;;;;7.28;4.43;;;;;;;-142.57;47.06;115900.28;4883310;29;20093;-81
2023/06/06 09:40:19;;;;;;;5.30;3.42;;;;;;;-142.57;48.30;115900.28;4870408;29;20040;-81
2023/06/06 09:42:56;;;;;;;6.47;3.60;;;;;;;-142.57;48.24;115900.28;4869854;29;20114;-81
2023/06/06 09:45:26;;;;;;;5.63;4.35;;;;;;;-142.57;48.89;115900.28;4866984;29;20076;-82
2023/06/06 09:47:52;;;;;;;10.38;4.60;;;;;;;-142.57;51.64;115900.28;4866640;29;20116;-83
2023/06/06 09:50:19;;;;;;;7.85;5.28;;;;;;;-142.57;54.40;115900.28;4857003;29;20065;-84
2023/06/06 09:52:45;;;;;;;8.05;4.80;;;;;;;-142.57;56.60;115900.28;4868619;29;20037;-83
2023/06/06 09:55:13;;;;;;;6.85;5.40;;;;;;;-142.57;58.09;115900.28;4863971;29;20594;-83
2023/06/06 09:57:40;;;;;;;7.82;5.30;;;;;;;-142.57;57.42;115900.28;4864037;29;20652;-83
2023/06/06 10:00:10;;;;;;;6.85;4.95;;;;;;;-142.57;55.26;115900.28;4882307;29;20029;-82
2023/06/06 10:02:45;;;;;;;10.35;5.25;;;;;;;-142.57;53.33;115900.28;4881515;29;20045;-84
2023/06/06 10:05:15;;;;;;;10.32;4.50;;;;;;;-142.57;52.56;115900.28;4881627;29;20188;-84
2023/06/06 10:07:45;;;;;;;8.75;4.60;;;;;;;-142.57;51.45;115900.28;4850720;29;20490;-83
2023/06/06 10:10:16;;;;;;;5.38;4.20;;;;;;;-142.57;50.55;115900.28;4885149;29;20105;-82
2023/06/06 10:12:43;;;;;;;7.40;4.90;;;;;;;-142.57;49.57;115900.28;4884561;29;20051;-84
2023/06/06 10:15:20;;;;;;;5.93;3.67;;;;;;;-142.57;51.15;115900.28;4884509;29;20033;-84
2023/06/06 10:17:46;;;;;;;10.90;5.28;;;;;;;-142.57;50.06;115900.28;4851561;29;20045;-83
2023/06/06 10:20:12;;;;;;;6.30;4.57;;;;;;;-142.57;51.15;115900.28;4862324;29;20041;-83
2023/06/06 10:22:39;;;;;;;5.47;4.20;;;;;;;-142.57;48.11;115900.28;4863282;29;20045;-82
2023/06/06 10:25:12;;;;;;;6.35;4.07;;;;;;;-142.57;47.55;115900.28;4846869;29;20152;-80
2023/06/06 10:27:41;;;;;;;5.55;3.78;;;;;;;-142.57;47.16;115900.28;4863584;29;20049;-90
2023/06/06 10:30:14;;;;;;;4.22;3.17;;;;;;;-142.57;46.01;115900.28;4884496;29;20021;-88
2023/06/06 10:32:49;;;;;;;4.57;3.70;;;;;;;-142.57;45.63;115900.28;4868854;29;20029;-90
2023/06/06 10:35:17;;;;;;;5.22;3.70;;;;;;;-142.57;47.56;115900.28;4866765;29;20587;-91
2023/06/06 10:38:02;;;;;;;3.85;3.10;;;;;;;-142.57;48.36;115900.28;4867671;29;20032;-86
2023/06/06 10:40:39;;;;;;;5.35;3.75;;;;;;;-142.57;47.74;115900.28;4882088;29;20062;-87
2023/06/06 10:43:04;;;;;;;6.75;3.55;;;;;;;-142.57;47.86;115900.28;4856791;29;20033;-87
2023/06/06 10:45:45;;;;;;;4.55;3.40;;;;;;;-142.57;49.75;115900.28;4894652;29;20033;-85
2023/06/06 10:48:13;;;;;;;6.65;3.30;;;;;;;-142.57;50.68;115900.28;4897037;29;20040;-84
2023/06/06 10:50:51;;;;;;;5.13;3.88;;;;;;;-142.57;53.00;115900.28;4917539;29;20037;-85
2023/06/06 10:53:19;;;;;;;6.35;3.75;;;;;;;-142.57;52.56;115900.28;4909137;29;20052;-89
2023/06/06 10:55:45;;;;;;;8.15;4.00;;;;;;;-142.57;54.28;115900.28;4905096;29;20096;-88
2023/06/06 10:58:31;;;;;;;4.57;3.53;;;;;;;-142.57;54.11;115900.28;4908735;29;20423;-82
2023/06/06 11:01:05;;;;;;;4.93;3.38;;;;;;;-142.57;53.84;115900.28;4890920;29;20040;-83
2023/06/06 11:03:38;;;;;;;4.35;2.97;;;;;;;-142.57;52.41;115900.28;4902269;29;20048;-88
2023/06/06 11:06:16;;;;;;;5.25;2.50;;;;;;;-142.57;50.56;115900.28;4903831;29;20033;-86